sensor_id;sensor_type;location;lat;lon;timestamp;pressure;altitude;pressure_sealevel;temperature;humidity
40794;BME280;26502;51.886;15.604;2024-02-16T00:01:34;100903.45;;;8.24;89.37
40794;BME280;26502;51.886;15.604;2024-02-16T00:07:00;100908.73;;;8.26;89.11
40794;BME280;26502;51.886;15.604;2024-02-16T00:12:26;100904.33;;;8.26;88.98
40794;BME280;26502;51.886;15.604;2024-02-16T00:17:52;100900.21;;;8.28;88.99
40794;BME280;26502;51.886;15.604;2024-02-16T00:23:20;100897.03;;;8.28;88.87
40794;BME280;26502;51.886;15.604;2024-02-16T00:28:46;100900.30;;;8.23;88.79
40794;BME280;26502;51.886;15.604;2024-02-16T00:34:12;100902.31;;;8.19;88.74
40794;BME280;26502;51.886;15.604;2024-02-16T00:39:39;100902.45;;;8.12;88.53
40794;BME280;26502;51.886;15.604;2024-02-16T00:45:07;100905.62;;;8.04;88.70
40794;BME280;26502;51.886;15.604;2024-02-16T00:50:33;100897.85;;;7.93;88.52
40794;BME280;26502;51.886;15.604;2024-02-16T00:55:59;100894.23;;;7.78;88.50
40794;BME280;26502;51.886;15.604;2024-02-16T01:01:25;100890.83;;;7.60;88.32
40794;BME280;26502;51.886;15.604;2024-02-16T01:06:51;100888.42;;;7.45;88.09
40794;BME280;26502;51.886;15.604;2024-02-16T01:12:17;100882.46;;;7.30;87.80
40794;BME280;26502;51.886;15.604;2024-02-16T01:17:43;100875.20;;;7.20;87.85
40794;BME280;26502;51.886;15.604;2024-02-16T01:23:10;100872.55;;;7.08;87.60
40794;BME280;26502;51.886;15.604;2024-02-16T01:28:35;100874.61;;;7.00;87.55
40794;BME280;26502;51.886;15.604;2024-02-16T01:34:01;100875.11;;;7.02;87.61
40794;BME280;26502;51.886;15.604;2024-02-16T01:39:27;100877.05;;;7.03;87.45
40794;BME280;26502;51.886;15.604;2024-02-16T01:44:53;100876.55;;;7.00;87.26
40794;BME280;26502;51.886;15.604;2024-02-16T01:50:19;100878.73;;;6.96;87.20
40794;BME280;26502;51.886;15.604;2024-02-16T01:55:45;100876.91;;;6.87;86.97
40794;BME280;26502;51.886;15.604;2024-02-16T02:01:11;100885.48;;;6.81;86.98
40794;BME280;26502;51.886;15.604;2024-02-16T02:06:37;100887.71;;;6.72;86.74
40794;BME280;26502;51.886;15.604;2024-02-16T02:12:06;100887.09;;;6.64;86.60
40794;BME280;26502;51.886;15.604;2024-02-16T02:17:31;100880.48;;;6.58;86.61
40794;BME280;26502;51.886;15.604;2024-02-16T02:22:57;100877.23;;;6.49;86.53
40794;BME280;26502;51.886;15.604;2024-02-16T02:28:23;100874.16;;;6.41;86.48
40794;BME280;26502;51.886;15.604;2024-02-16T02:33:49;100875.60;;;6.24;86.20
40794;BME280;26502;51.886;15.604;2024-02-16T02:39:14;100878.85;;;6.16;86.48
40794;BME280;26502;51.886;15.604;2024-02-16T02:44:40;100871.50;;;6.12;86.37
40794;BME280;26502;51.886;15.604;2024-02-16T02:50:10;100879.36;;;6.03;86.17
40794;BME280;26502;51.886;15.604;2024-02-16T02:55:36;100878.02;;;5.93;86.20
40794;BME280;26502;51.886;15.604;2024-02-16T03:01:02;100877.23;;;5.82;86.11
40794;BME280;26502;51.886;15.604;2024-02-16T03:06:28;100872.23;;;5.72;86.17
40794;BME280;26502;51.886;15.604;2024-02-16T03:11:54;100876.73;;;5.62;86.16
40794;BME280;26502;51.886;15.604;2024-02-16T03:17:22;100871.30;;;5.57;86.25
40794;BME280;26502;51.886;15.604;2024-02-16T03:22:48;100872.93;;;5.53;86.17
40794;BME280;26502;51.886;15.604;2024-02-16T03:28:14;100877.77;;;5.44;86.15
40794;BME280;26502;51.886;15.604;2024-02-16T03:33:41;100873.42;;;5.34;86.15
40794;BME280;26502;51.886;15.604;2024-02-16T03:39:09;100868.39;;;5.26;86.08
40794;BME280;26502;51.886;15.604;2024-02-16T03:44:36;100863.15;;;5.19;86.16
40794;BME280;26502;51.886;15.604;2024-02-16T03:50:02;100855.31;;;5.08;85.97
40794;BME280;26502;51.886;15.604;2024-02-16T03:55:28;100847.66;;;4.93;85.86
40794;BME280;26502;51.886;15.604;2024-02-16T04:00:56;100839.07;;;4.89;86.07
40794;BME280;26502;51.886;15.604;2024-02-16T04:06:23;100834.38;;;4.80;85.94
40794;BME280;26502;51.886;15.604;2024-02-16T04:11:49;100837.59;;;4.72;86.04
40794;BME280;26502;51.886;15.604;2024-02-16T04:17:15;100840.08;;;4.67;86.00
40794;BME280;26502;51.886;15.604;2024-02-16T04:22:41;100837.30;;;4.58;85.99
40794;BME280;26502;51.886;15.604;2024-02-16T04:28:08;100829.98;;;4.48;86.08
40794;BME280;26502;51.886;15.604;2024-02-16T04:33:34;100825.77;;;4.42;86.16
40794;BME280;26502;51.886;15.604;2024-02-16T04:38:59;100817.00;;;4.39;86.26
40794;BME280;26502;51.886;15.604;2024-02-16T04:44:25;100814.73;;;4.36;86.22
40794;BME280;26502;51.886;15.604;2024-02-16T04:49:51;100805.79;;;4.31;86.39
40794;BME280;26502;51.886;15.604;2024-02-16T04:55:18;100802.09;;;4.33;86.64
40794;BME280;26502;51.886;15.604;2024-02-16T05:00:43;100807.02;;;4.32;86.69
40794;BME280;26502;51.886;15.604;2024-02-16T05:06:11;100805.24;;;4.33;86.81
40794;BME280;26502;51.886;15.604;2024-02-16T05:11:39;100802.23;;;4.40;87.17
40794;BME280;26502;51.886;15.604;2024-02-16T05:17:05;100796.60;;;4.41;86.96
40794;BME280;26502;51.886;15.604;2024-02-16T05:22:31;100792.55;;;4.40;87.07
40794;BME280;26502;51.886;15.604;2024-02-16T05:27:56;100787.13;;;4.37;87.06
40794;BME280;26502;51.886;15.604;2024-02-16T05:33:23;100786.92;;;4.40;87.25
40794;BME280;26502;51.886;15.604;2024-02-16T05:38:49;100792.38;;;4.40;87.23
40794;BME280;26502;51.886;15.604;2024-02-16T05:44:16;100788.01;;;4.37;87.28
40794;BME280;26502;51.886;15.604;2024-02-16T05:49:41;100798.05;;;4.33;87.36
40794;BME280;26502;51.886;15.604;2024-02-16T05:55:09;100796.09;;;4.37;87.58
40794;BME280;26502;51.886;15.604;2024-02-16T06:00:36;100793.79;;;4.41;87.46
40794;BME280;26502;51.886;15.604;2024-02-16T06:06:02;100794.83;;;4.46;87.46
40794;BME280;26502;51.886;15.604;2024-02-16T06:11:27;100793.73;;;4.49;87.39
40794;BME280;26502;51.886;15.604;2024-02-16T06:16:53;100793.53;;;4.55;87.36
40794;BME280;26502;51.886;15.604;2024-02-16T06:22:19;100796.69;;;4.58;87.34
40794;BME280;26502;51.886;15.604;2024-02-16T06:27:45;100799.91;;;4.47;87.11
40794;BME280;26502;51.886;15.604;2024-02-16T06:33:11;100799.56;;;4.45;87.47
40794;BME280;26502;51.886;15.604;2024-02-16T06:38:37;100802.15;;;4.53;87.63
40794;BME280;26502;51.886;15.604;2024-02-16T06:44:03;100800.21;;;4.55;87.69
40794;BME280;26502;51.886;15.604;2024-02-16T06:49:30;100802.13;;;4.61;87.95
40794;BME280;26502;51.886;15.604;2024-02-16T06:54:56;100805.04;;;4.73;88.05
40794;BME280;26502;51.886;15.604;2024-02-16T07:00:22;100807.61;;;4.83;87.96
40794;BME280;26502;51.886;15.604;2024-02-16T07:05:50;100811.75;;;4.93;88.00
40794;BME280;26502;51.886;15.604;2024-02-16T07:11:16;100811.19;;;4.99;88.07
40794;BME280;26502;51.886;15.604;2024-02-16T07:16:43;100809.33;;;5.13;88.33
40794;BME280;26502;51.886;15.604;2024-02-16T07:22:08;100810.08;;;5.28;88.44
40794;BME280;26502;51.886;15.604;2024-02-16T07:27:34;100803.13;;;5.38;88.49
40794;BME280;26502;51.886;15.604;2024-02-16T07:33:00;100804.45;;;5.45;88.62
40794;BME280;26502;51.886;15.604;2024-02-16T07:38:26;100803.69;;;5.54;88.77
40794;BME280;26502;51.886;15.604;2024-02-16T07:43:53;100794.09;;;5.61;88.92
40794;BME280;26502;51.886;15.604;2024-02-16T07:49:18;100795.98;;;5.66;88.94
40794;BME280;26502;51.886;15.604;2024-02-16T07:54:44;100796.41;;;5.76;88.99
40794;BME280;26502;51.886;15.604;2024-02-16T08:00:11;100799.59;;;5.92;89.01
40794;BME280;26502;51.886;15.604;2024-02-16T08:05:37;100800.77;;;5.99;88.82
40794;BME280;26502;51.886;15.604;2024-02-16T08:11:03;100795.76;;;6.06;88.88
40794;BME280;26502;51.886;15.604;2024-02-16T08:16:29;100794.77;;;6.14;88.79
40794;BME280;26502;51.886;15.604;2024-02-16T08:21:55;100792.93;;;6.21;89.04
40794;BME280;26502;51.886;15.604;2024-02-16T08:27:21;100785.75;;;6.30;89.05
40794;BME280;26502;51.886;15.604;2024-02-16T08:32:46;100785.17;;;6.34;89.05
40794;BME280;26502;51.886;15.604;2024-02-16T08:38:12;100789.79;;;6.44;89.21
40794;BME280;26502;51.886;15.604;2024-02-16T08:43:38;100788.63;;;6.52;89.16
40794;BME280;26502;51.886;15.604;2024-02-16T08:49:04;100784.77;;;6.62;89.36
40794;BME280;26502;51.886;15.604;2024-02-16T08:54:30;100779.44;;;6.89;89.92
40794;BME280;26502;51.886;15.604;2024-02-16T08:59:57;100770.09;;;7.10;90.03
40794;BME280;26502;51.886;15.604;2024-02-16T09:05:23;100770.48;;;7.29;90.14
40794;BME280;26502;51.886;15.604;2024-02-16T09:10:49;100762.42;;;7.55;90.67
40794;BME280;26502;51.886;15.604;2024-02-16T09:16:16;100753.71;;;7.85;91.02
40794;BME280;26502;51.886;15.604;2024-02-16T09:21:42;100751.91;;;8.12;90.94
40794;BME280;26502;51.886;15.604;2024-02-16T09:27:08;100750.02;;;8.43;90.97
40794;BME280;26502;51.886;15.604;2024-02-16T09:32:34;100754.39;;;8.62;90.73
40794;BME280;26502;51.886;15.604;2024-02-16T09:38:00;100749.41;;;8.78;90.84
40794;BME280;26502;51.886;15.604;2024-02-16T09:43:30;100751.29;;;8.88;90.65
40794;BME280;26502;51.886;15.604;2024-02-16T09:48:58;100750.54;;;8.90;90.43
40794;BME280;26502;51.886;15.604;2024-02-16T09:54:27;100753.23;;;9.03;90.71
40794;BME280;26502;51.886;15.604;2024-02-16T09:59:55;100757.58;;;9.27;90.77
40794;BME280;26502;51.886;15.604;2024-02-16T10:05:22;100757.60;;;9.54;90.87
40794;BME280;26502;51.886;15.604;2024-02-16T10:10:48;100751.48;;;9.96;91.22
40794;BME280;26502;51.886;15.604;2024-02-16T10:16:14;100745.29;;;10.43;90.96
40794;BME280;26502;51.886;15.604;2024-02-16T10:21:40;100738.54;;;10.94;91.04
40794;BME280;26502;51.886;15.604;2024-02-16T10:27:15;100730.08;;;11.39;90.28
40794;BME280;26502;51.886;15.604;2024-02-16T10:32:41;100730.93;;;11.80;89.82
40794;BME280;26502;51.886;15.604;2024-02-16T10:38:09;100723.42;;;12.06;88.47
40794;BME280;26502;51.886;15.604;2024-02-16T10:43:36;100714.34;;;12.21;87.94
40794;BME280;26502;51.886;15.604;2024-02-16T10:49:02;100714.32;;;12.39;86.87
40794;BME280;26502;51.886;15.604;2024-02-16T10:54:32;100715.29;;;12.59;85.52
40794;BME280;26502;51.886;15.604;2024-02-16T11:00:00;100708.88;;;12.60;84.94
40794;BME280;26502;51.886;15.604;2024-02-16T11:05:36;100705.30;;;12.60;84.49
40794;BME280;26502;51.886;15.604;2024-02-16T11:11:07;100702.70;;;12.66;84.51
40794;BME280;26502;51.886;15.604;2024-02-16T11:16:45;100700.83;;;12.78;84.37
40794;BME280;26502;51.886;15.604;2024-02-16T11:22:11;100687.97;;;12.83;84.20
40794;BME280;26502;51.886;15.604;2024-02-16T11:27:40;100686.05;;;12.95;84.10
40794;BME280;26502;51.886;15.604;2024-02-16T11:33:11;100683.61;;;12.97;83.45
40794;BME280;26502;51.886;15.604;2024-02-16T11:38:37;100686.61;;;13.03;83.07
40794;BME280;26502;51.886;15.604;2024-02-16T11:44:04;100684.34;;;13.10;82.57
40794;BME280;26502;51.886;15.604;2024-02-16T11:49:30;100680.52;;;13.20;82.43
40794;BME280;26502;51.886;15.604;2024-02-16T11:54:56;100668.93;;;13.32;82.10
40794;BME280;26502;51.886;15.604;2024-02-16T12:00:25;100665.52;;;13.33;81.78
40794;BME280;26502;51.886;15.604;2024-02-16T12:05:54;100665.77;;;13.36;81.62
40794;BME280;26502;51.886;15.604;2024-02-16T12:11:20;100666.46;;;13.32;81.15
40794;BME280;26502;51.886;15.604;2024-02-16T12:16:50;100667.47;;;13.33;80.83
40794;BME280;26502;51.886;15.604;2024-02-16T12:22:19;100659.41;;;13.30;80.76
40794;BME280;26502;51.886;15.604;2024-02-16T12:27:46;100653.81;;;13.27;80.74
40794;BME280;26502;51.886;15.604;2024-02-16T12:33:12;100649.34;;;13.27;80.56
40794;BME280;26502;51.886;15.604;2024-02-16T12:38:38;100648.38;;;13.29;80.33
40794;BME280;26502;51.886;15.604;2024-02-16T12:44:03;100649.35;;;13.31;80.41
40794;BME280;26502;51.886;15.604;2024-02-16T12:49:29;100644.58;;;13.39;80.15
40794;BME280;26502;51.886;15.604;2024-02-16T12:54:57;100635.89;;;13.50;80.12
40794;BME280;26502;51.886;15.604;2024-02-16T13:00:23;100635.11;;;13.59;79.86
40794;BME280;26502;51.886;15.604;2024-02-16T13:05:49;100632.39;;;13.76;79.24
40794;BME280;26502;51.886;15.604;2024-02-16T13:11:15;100627.44;;;13.94;79.19
40794;BME280;26502;51.886;15.604;2024-02-16T13:16:41;100619.36;;;14.06;78.92
40794;BME280;26502;51.886;15.604;2024-02-16T13:22:06;100613.23;;;14.11;78.72
40794;BME280;26502;51.886;15.604;2024-02-16T13:27:32;100616.77;;;14.15;78.35
40794;BME280;26502;51.886;15.604;2024-02-16T13:32:59;100621.22;;;14.12;78.18
40794;BME280;26502;51.886;15.604;2024-02-16T13:38:25;100618.98;;;14.14;78.08
40794;BME280;26502;51.886;15.604;2024-02-16T13:43:51;100619.81;;;14.15;77.86
40794;BME280;26502;51.886;15.604;2024-02-16T13:49:17;100615.48;;;14.09;77.80
40794;BME280;26502;51.886;15.604;2024-02-16T13:54:43;100618.63;;;14.10;77.72
40794;BME280;26502;51.886;15.604;2024-02-16T14:00:13;100622.80;;;14.05;77.51
40794;BME280;26502;51.886;15.604;2024-02-16T14:05:40;100616.27;;;14.00;77.57
40794;BME280;26502;51.886;15.604;2024-02-16T14:11:06;100613.08;;;13.99;77.65
40794;BME280;26502;51.886;15.604;2024-02-16T14:16:33;100611.25;;;14.00;77.40
40794;BME280;26502;51.886;15.604;2024-02-16T14:21:59;100612.74;;;13.99;77.50
40794;BME280;26502;51.886;15.604;2024-02-16T14:27:25;100608.73;;;14.01;77.59
40794;BME280;26502;51.886;15.604;2024-02-16T14:32:51;100612.59;;;14.02;77.35
40794;BME280;26502;51.886;15.604;2024-02-16T14:38:17;100616.55;;;14.01;77.45
40794;BME280;26502;51.886;15.604;2024-02-16T14:43:42;100616.50;;;13.99;77.35
40794;BME280;26502;51.886;15.604;2024-02-16T14:49:14;100619.74;;;13.94;77.15
40794;BME280;26502;51.886;15.604;2024-02-16T14:54:45;100621.02;;;13.90;77.73
40794;BME280;26502;51.886;15.604;2024-02-16T15:00:14;100614.91;;;13.79;78.01
40794;BME280;26502;51.886;15.604;2024-02-16T15:05:40;100613.73;;;13.70;77.43
40794;BME280;26502;51.886;15.604;2024-02-16T15:11:06;100613.47;;;13.68;76.22
40794;BME280;26502;51.886;15.604;2024-02-16T15:16:32;100612.15;;;13.73;74.90
40794;BME280;26502;51.886;15.604;2024-02-16T15:21:58;100606.09;;;13.73;74.49
40794;BME280;26502;51.886;15.604;2024-02-16T15:27:24;100608.77;;;13.65;74.11
40794;BME280;26502;51.886;15.604;2024-02-16T15:32:50;100610.64;;;13.56;73.68
40794;BME280;26502;51.886;15.604;2024-02-16T15:38:16;100615.91;;;13.50;72.31
40794;BME280;26502;51.886;15.604;2024-02-16T15:43:42;100615.84;;;13.47;71.90
40794;BME280;26502;51.886;15.604;2024-02-16T15:49:08;100615.94;;;13.42;71.53
40794;BME280;26502;51.886;15.604;2024-02-16T15:54:34;100619.25;;;13.30;71.21
40794;BME280;26502;51.886;15.604;2024-02-16T16:00:01;100628.45;;;13.20;71.01
40794;BME280;26502;51.886;15.604;2024-02-16T16:05:29;100630.66;;;13.14;70.33
40794;BME280;26502;51.886;15.604;2024-02-16T16:10:58;100625.35;;;13.05;70.18
40794;BME280;26502;51.886;15.604;2024-02-16T16:16:26;100625.89;;;12.97;69.88
40794;BME280;26502;51.886;15.604;2024-02-16T16:21:52;100627.60;;;12.86;69.24
40794;BME280;26502;51.886;15.604;2024-02-16T16:27:19;100633.88;;;12.77;69.14
40794;BME280;26502;51.886;15.604;2024-02-16T16:32:45;100637.29;;;12.67;69.19
40794;BME280;26502;51.886;15.604;2024-02-16T16:38:10;100641.48;;;12.61;68.51
40794;BME280;26502;51.886;15.604;2024-02-16T16:43:36;100648.89;;;12.58;68.50
40794;BME280;26502;51.886;15.604;2024-02-16T16:49:02;100648.50;;;12.50;68.63
40794;BME280;26502;51.886;15.604;2024-02-16T16:54:30;100652.36;;;12.43;68.42
40794;BME280;26502;51.886;15.604;2024-02-16T16:59:57;100653.40;;;12.34;68.44
40794;BME280;26502;51.886;15.604;2024-02-16T17:05:23;100663.42;;;12.29;68.41
40794;BME280;26502;51.886;15.604;2024-02-16T17:10:49;100670.13;;;12.22;68.27
40794;BME280;26502;51.886;15.604;2024-02-16T17:16:15;100666.59;;;12.12;68.22
40794;BME280;26502;51.886;15.604;2024-02-16T17:21:41;100667.39;;;12.05;68.26
40794;BME280;26502;51.886;15.604;2024-02-16T17:27:07;100663.61;;;11.97;68.26
40794;BME280;26502;51.886;15.604;2024-02-16T17:32:33;100662.56;;;11.86;68.61
40794;BME280;26502;51.886;15.604;2024-02-16T17:37:59;100663.48;;;11.76;68.61
40794;BME280;26502;51.886;15.604;2024-02-16T17:43:25;100666.52;;;11.71;68.88
40794;BME280;26502;51.886;15.604;2024-02-16T17:48:51;100667.84;;;11.64;68.89
40794;BME280;26502;51.886;15.604;2024-02-16T17:54:17;100674.92;;;11.60;69.08
40794;BME280;26502;51.886;15.604;2024-02-16T17:59:44;100677.42;;;11.55;69.02
40794;BME280;26502;51.886;15.604;2024-02-16T18:05:13;100694.86;;;11.50;69.00
40794;BME280;26502;51.886;15.604;2024-02-16T18:10:39;100691.59;;;11.47;69.14
40794;BME280;26502;51.886;15.604;2024-02-16T18:16:06;100692.48;;;11.42;69.14
40794;BME280;26502;51.886;15.604;2024-02-16T18:21:32;100692.25;;;11.38;69.24
40794;BME280;26502;51.886;15.604;2024-02-16T18:26:58;100690.52;;;11.37;69.23
40794;BME280;26502;51.886;15.604;2024-02-16T18:32:25;100695.03;;;11.35;69.26
40794;BME280;26502;51.886;15.604;2024-02-16T18:37:51;100698.14;;;11.32;69.20
40794;BME280;26502;51.886;15.604;2024-02-16T18:43:17;100701.59;;;11.30;69.21
40794;BME280;26502;51.886;15.604;2024-02-16T18:48:44;100698.46;;;11.28;69.20
40794;BME280;26502;51.886;15.604;2024-02-16T18:54:11;100707.45;;;11.25;69.24
40794;BME280;26502;51.886;15.604;2024-02-16T18:59:37;100714.72;;;11.21;69.21
40794;BME280;26502;51.886;15.604;2024-02-16T19:05:03;100718.60;;;11.17;69.27
40794;BME280;26502;51.886;15.604;2024-02-16T19:10:29;100723.26;;;11.15;69.47
40794;BME280;26502;51.886;15.604;2024-02-16T19:15:55;100723.17;;;11.12;69.44
40794;BME280;26502;51.886;15.604;2024-02-16T19:21:23;100725.17;;;11.11;69.45
40794;BME280;26502;51.886;15.604;2024-02-16T19:26:49;100722.41;;;11.09;69.49
40794;BME280;26502;51.886;15.604;2024-02-16T19:32:17;100722.36;;;11.05;69.54
40794;BME280;26502;51.886;15.604;2024-02-16T19:37:42;100727.94;;;11.03;69.45
40794;BME280;26502;51.886;15.604;2024-02-16T19:43:09;100726.79;;;11.05;69.41
40794;BME280;26502;51.886;15.604;2024-02-16T19:48:40;100734.22;;;11.07;69.39
40794;BME280;26502;51.886;15.604;2024-02-16T19:54:07;100739.59;;;11.06;69.54
40794;BME280;26502;51.886;15.604;2024-02-16T19:59:34;100742.36;;;11.07;69.55
40794;BME280;26502;51.886;15.604;2024-02-16T20:05:00;100746.48;;;11.06;69.57
40794;BME280;26502;51.886;15.604;2024-02-16T20:10:27;100752.00;;;11.06;69.62
40794;BME280;26502;51.886;15.604;2024-02-16T20:15:56;100758.11;;;11.09;69.58
40794;BME280;26502;51.886;15.604;2024-02-16T20:21:23;100755.73;;;11.12;69.65
40794;BME280;26502;51.886;15.604;2024-02-16T20:26:49;100761.27;;;11.21;69.37
40794;BME280;26502;51.886;15.604;2024-02-16T20:32:15;100763.02;;;11.28;69.06
40794;BME280;26502;51.886;15.604;2024-02-16T20:37:41;100765.20;;;11.31;68.82
40794;BME280;26502;51.886;15.604;2024-02-16T20:43:08;100774.60;;;11.32;68.86
40794;BME280;26502;51.886;15.604;2024-02-16T20:48:34;100774.73;;;11.28;68.97
40794;BME280;26502;51.886;15.604;2024-02-16T20:54:00;100778.27;;;11.29;69.17
40794;BME280;26502;51.886;15.604;2024-02-16T20:59:27;100780.27;;;11.33;68.93
40794;BME280;26502;51.886;15.604;2024-02-16T21:04:53;100778.52;;;11.32;68.94
40794;BME280;26502;51.886;15.604;2024-02-16T21:10:19;100780.82;;;11.32;68.85
40794;BME280;26502;51.886;15.604;2024-02-16T21:15:45;100780.64;;;11.27;69.08
40794;BME280;26502;51.886;15.604;2024-02-16T21:21:11;100784.88;;;11.28;69.03
40794;BME280;26502;51.886;15.604;2024-02-16T21:26:38;100786.61;;;11.29;69.22
40794;BME280;26502;51.886;15.604;2024-02-16T21:32:05;100789.48;;;11.34;69.11
40794;BME280;26502;51.886;15.604;2024-02-16T21:37:38;100796.98;;;11.43;69.10
40794;BME280;26502;51.886;15.604;2024-02-16T21:43:05;100798.64;;;11.46;68.84
40794;BME280;26502;51.886;15.604;2024-02-16T21:48:31;100805.16;;;11.48;68.64
40794;BME280;26502;51.886;15.604;2024-02-16T21:53:57;100807.89;;;11.47;68.76
40794;BME280;26502;51.886;15.604;2024-02-16T21:59:23;100812.22;;;11.45;68.70
40794;BME280;26502;51.886;15.604;2024-02-16T22:04:50;100822.19;;;11.50;68.62
40794;BME280;26502;51.886;15.604;2024-02-16T22:10:16;100826.30;;;11.49;68.71
40794;BME280;26502;51.886;15.604;2024-02-16T22:15:43;100826.89;;;11.47;68.74
40794;BME280;26502;51.886;15.604;2024-02-16T22:21:11;100819.36;;;11.50;68.52
40794;BME280;26502;51.886;15.604;2024-02-16T22:26:37;100821.73;;;11.48;68.90
40794;BME280;26502;51.886;15.604;2024-02-16T22:32:05;100830.52;;;11.40;68.87
40794;BME280;26502;51.886;15.604;2024-02-16T22:37:31;100834.48;;;11.39;69.13
40794;BME280;26502;51.886;15.604;2024-02-16T22:42:58;100837.52;;;11.38;69.11
40794;BME280;26502;51.886;15.604;2024-02-16T22:48:23;100845.30;;;11.40;69.39
40794;BME280;26502;51.886;15.604;2024-02-16T22:53:49;100847.16;;;11.37;69.35
40794;BME280;26502;51.886;15.604;2024-02-16T22:59:15;100851.01;;;11.39;69.54
40794;BME280;26502;51.886;15.604;2024-02-16T23:04:41;100853.01;;;11.43;69.58
40794;BME280;26502;51.886;15.604;2024-02-16T23:10:09;100855.98;;;11.44;69.76
40794;BME280;26502;51.886;15.604;2024-02-16T23:15:35;100860.88;;;11.47;69.87
40794;BME280;26502;51.886;15.604;2024-02-16T23:21:00;100865.39;;;11.51;69.89
40794;BME280;26502;51.886;15.604;2024-02-16T23:26:26;100870.76;;;11.55;70.06
40794;BME280;26502;51.886;15.604;2024-02-16T23:31:52;100873.29;;;11.54;70.06
40794;BME280;26502;51.886;15.604;2024-02-16T23:37:19;100874.77;;;11.57;70.03
40794;BME280;26502;51.886;15.604;2024-02-16T23:42:45;100877.92;;;11.59;70.02
40794;BME280;26502;51.886;15.604;2024-02-16T23:48:10;100881.48;;;11.59;70.13
40794;BME280;26502;51.886;15.604;2024-02-16T23:53:36;100881.16;;;11.58;70.15
40794;BME280;26502;51.886;15.604;2024-02-16T23:59:02;100889.02;;;11.57;70.18
